KLM32 EHGG-EDDW
Flight info
| Callsign | KLM32 |
|---|---|
| Flight time | N/A |
| Altitude | 17000 |
| Route | DOBAK DCT SUQIF M105 REVLA T948 GIBMA GIBMA2P |
| Aircraft | A320/M-SDE3FGHIRWY/LB1 |
Departure
| Time | 2026-05-06 08:07 |
|---|---|
| Airport | Groningen Airport Eelde (EHGG) |
Arrival
| Time | N/A |
|---|---|
| Airport | Bremen Airport (EDDW) |
| Time | Latitude | Longitude | Altitude | Speed | Heading |
|---|---|---|---|---|---|
| 2026-05-06 07:46 | 53.12820 | 6.58590 | 23 ft | 0 kts | 355° |
| 2026-05-06 08:01 | 53.12824 | 6.58609 | 24 ft | 1 kts | 112° |
| 2026-05-06 08:01 | 53.12803 | 6.58611 | 25 ft | 10 kts | 188° |
| 2026-05-06 08:02 | 53.12717 | 6.58538 | 22 ft | 15 kts | 226° |
| 2026-05-06 08:02 | 53.12655 | 6.58411 | 22 ft | 14 kts | 232° |
| 2026-05-06 08:02 | 53.12568 | 6.58225 | 21 ft | 27 kts | 232° |
| 2026-05-06 08:02 | 53.12452 | 6.57982 | 22 ft | 26 kts | 232° |
| 2026-05-06 08:03 | 53.12321 | 6.57836 | 26 ft | 21 kts | 186° |
| 2026-05-06 08:03 | 53.12188 | 6.57802 | 31 ft | 17 kts | 189° |
| 2026-05-06 08:03 | 53.12097 | 6.57706 | 30 ft | 17 kts | 231° |
| 2026-05-06 08:03 | 53.11993 | 6.57479 | 28 ft | 28 kts | 233° |
| 2026-05-06 08:04 | 53.11878 | 6.57230 | 28 ft | 26 kts | 231° |
| 2026-05-06 08:04 | 53.11770 | 6.57000 | 28 ft | 24 kts | 233° |
| 2026-05-06 08:04 | 53.11663 | 6.56798 | 27 ft | 23 kts | 201° |
| 2026-05-06 08:04 | 53.11542 | 6.56873 | 31 ft | 18 kts | 157° |
| 2026-05-06 08:05 | 53.11443 | 6.56790 | 29 ft | 18 kts | 223° |
| 2026-05-06 08:05 | 53.11361 | 6.56631 | 27 ft | 19 kts | 232° |
| 2026-05-06 08:05 | 53.11307 | 6.56516 | 27 ft | 20 kts | 232° |
| 2026-05-06 08:05 | 53.11225 | 6.56340 | 29 ft | 18 kts | 232° |
| 2026-05-06 08:06 | 53.11186 | 6.56153 | 26 ft | 16 kts | 264° |
| 2026-05-06 08:06 | 53.11139 | 6.56092 | 28 ft | 7 kts | 177° |
| 2026-05-06 08:06 | 53.11130 | 6.56151 | 28 ft | 6 kts | 57° |
| 2026-05-06 08:06 | 53.11141 | 6.56172 | 27 ft | 2 kts | 48° |
| 2026-05-06 08:07 | 53.11252 | 6.56393 | 26 ft | 61 kts | 52° |
| 2026-05-06 08:07 | 53.11654 | 6.57242 | 35 ft | 122 kts | 52° |
| 2026-05-06 08:07 | 53.12249 | 6.58495 | 373 ft | 141 kts | 49° |
| 2026-05-06 08:07 | 53.12893 | 6.59752 | 1072 ft | 143 kts | 50° |
| 2026-05-06 08:08 | 53.13573 | 6.61078 | 1575 ft | 162 kts | 51° |
| 2026-05-06 08:08 | 53.14344 | 6.62601 | 2007 ft | 182 kts | 51° |
| 2026-05-06 08:08 | 53.15216 | 6.64335 | 2455 ft | 207 kts | 51° |
| 2026-05-06 08:08 | 53.16156 | 6.66316 | 3027 ft | 227 kts | 60° |
| 2026-05-06 08:09 | 53.16637 | 6.68859 | 3905 ft | 236 kts | 78° |
| 2026-05-06 08:09 | 53.16904 | 6.71599 | 4814 ft | 243 kts | 79° |
| 2026-05-06 08:09 | 53.17157 | 6.74416 | 5731 ft | 249 kts | 80° |
| 2026-05-06 08:09 | 53.17410 | 6.77307 | 6597 ft | 255 kts | 81° |
| 2026-05-06 08:10 | 53.17666 | 6.80221 | 7443 ft | 261 kts | 81° |
| 2026-05-06 08:10 | 53.17933 | 6.83245 | 8259 ft | 268 kts | 81° |
| 2026-05-06 08:10 | 53.18210 | 6.86367 | 9075 ft | 277 kts | 82° |
| 2026-05-06 08:10 | 53.18498 | 6.89599 | 9856 ft | 286 kts | 82° |
| 2026-05-06 08:11 | 53.18800 | 6.92985 | 10324 ft | 307 kts | 82° |
| 2026-05-06 08:11 | 53.19125 | 6.96629 | 10609 ft | 330 kts | 82° |
| 2026-05-06 08:11 | 53.19472 | 7.00516 | 11125 ft | 343 kts | 82° |
| 2026-05-06 08:11 | 53.19828 | 7.04482 | 11846 ft | 349 kts | 82° |
| 2026-05-06 08:12 | 53.20188 | 7.08506 | 12615 ft | 353 kts | 82° |
| 2026-05-06 08:12 | 53.20547 | 7.12573 | 13386 ft | 357 kts | 82° |
| 2026-05-06 08:12 | 53.20907 | 7.16703 | 14087 ft | 362 kts | 82° |
| 2026-05-06 08:12 | 53.21263 | 7.20881 | 14790 ft | 364 kts | 83° |
| 2026-05-06 08:13 | 53.21382 | 7.25120 | 15457 ft | 368 kts | 90° |
| 2026-05-06 08:13 | 53.21425 | 7.29401 | 16115 ft | 371 kts | 91° |
| 2026-05-06 08:13 | 53.21470 | 7.33735 | 16554 ft | 374 kts | 90° |
| 2026-05-06 08:13 | 53.21516 | 7.38080 | 16790 ft | 375 kts | 91° |
| 2026-05-06 08:14 | 53.21558 | 7.42469 | 16877 ft | 385 kts | 90° |
| 2026-05-06 08:14 | 53.21598 | 7.46993 | 16886 ft | 392 kts | 91° |
| 2026-05-06 08:14 | 53.21639 | 7.51546 | 16878 ft | 394 kts | 90° |
| 2026-05-06 08:14 | 53.21685 | 7.56127 | 16881 ft | 394 kts | 90° |
| 2026-05-06 08:15 | 53.21960 | 7.60677 | 16879 ft | 396 kts | 79° |
| 2026-05-06 08:15 | 53.22691 | 7.65110 | 16877 ft | 397 kts | 74° |
| 2026-05-06 08:15 | 53.23534 | 7.69443 | 16875 ft | 397 kts | 73° |
| 2026-05-06 08:15 | 53.24380 | 7.73815 | 16879 ft | 395 kts | 73° |
| 2026-05-06 08:16 | 53.25217 | 7.78186 | 16880 ft | 394 kts | 73° |
| 2026-05-06 08:16 | 53.26047 | 7.82555 | 16876 ft | 394 kts | 73° |
| 2026-05-06 08:16 | 53.26863 | 7.86859 | 16640 ft | 383 kts | 73° |
| 2026-05-06 08:16 | 53.27653 | 7.91035 | 16384 ft | 373 kts | 73° |
| 2026-05-06 08:17 | 53.28428 | 7.95135 | 16120 ft | 367 kts | 73° |
| 2026-05-06 08:17 | 53.29193 | 7.99181 | 15862 ft | 364 kts | 73° |
| 2026-05-06 08:17 | 53.29953 | 8.03202 | 15609 ft | 362 kts | 73° |
| 2026-05-06 08:17 | 53.30707 | 8.07200 | 15360 ft | 360 kts | 72° |
| 2026-05-06 08:18 | 53.31453 | 8.11188 | 15107 ft | 358 kts | 73° |
| 2026-05-06 08:18 | 53.32140 | 8.15184 | 14855 ft | 355 kts | 78° |
| 2026-05-06 08:18 | 53.32416 | 8.19243 | 14436 ft | 351 kts | 89° |
| 2026-05-06 08:18 | 53.32264 | 8.23317 | 13941 ft | 350 kts | 95° |
| 2026-05-06 08:19 | 53.32044 | 8.27356 | 13400 ft | 348 kts | 96° |
| 2026-05-06 08:19 | 53.31826 | 8.31364 | 12880 ft | 344 kts | 95° |
| 2026-05-06 08:19 | 53.31612 | 8.35328 | 12384 ft | 340 kts | 95° |
| 2026-05-06 08:19 | 53.31401 | 8.39246 | 11869 ft | 337 kts | 95° |
| 2026-05-06 08:20 | 53.31192 | 8.43131 | 11362 ft | 333 kts | 95° |
| 2026-05-06 08:20 | 53.30985 | 8.46971 | 10828 ft | 331 kts | 94° |
| 2026-05-06 08:20 | 53.30778 | 8.50786 | 10367 ft | 327 kts | 94° |
| 2026-05-06 08:20 | 53.30577 | 8.54440 | 10239 ft | 313 kts | 94° |
| 2026-05-06 08:21 | 53.30379 | 8.57991 | 10112 ft | 300 kts | 95° |
| 2026-05-06 08:21 | 53.30181 | 8.61396 | 9985 ft | 289 kts | 97° |
| 2026-05-06 08:21 | 53.29646 | 8.64581 | 9834 ft | 283 kts | 112° |
| 2026-05-06 08:21 | 53.28602 | 8.67366 | 9728 ft | 286 kts | 128° |
| 2026-05-06 08:22 | 53.27105 | 8.69646 | 9138 ft | 293 kts | 141° |
| 2026-05-06 08:22 | 53.25504 | 8.71683 | 8843 ft | 287 kts | 140° |
| 2026-05-06 08:22 | 53.23903 | 8.73642 | 8484 ft | 285 kts | 148° |
| 2026-05-06 08:22 | 53.22031 | 8.74663 | 8136 ft | 285 kts | 172° |
| 2026-05-06 08:23 | 53.20081 | 8.74295 | 7531 ft | 284 kts | 198° |
| 2026-05-06 08:23 | 53.18436 | 8.72539 | 6924 ft | 284 kts | 226° |
| 2026-05-06 08:23 | 53.17336 | 8.69827 | 6246 ft | 283 kts | 240° |
| 2026-05-06 08:23 | 53.16414 | 8.66920 | 5543 ft | 283 kts | 242° |
| 2026-05-06 08:24 | 53.15520 | 8.64020 | 4888 ft | 281 kts | 242° |
| 2026-05-06 08:24 | 53.14637 | 8.61154 | 4449 ft | 271 kts | 242° |
| 2026-05-06 08:24 | 53.13805 | 8.58469 | 4312 ft | 250 kts | 242° |
| 2026-05-06 08:24 | 53.13036 | 8.55975 | 4117 ft | 235 kts | 242° |
| 2026-05-06 08:25 | 53.12315 | 8.53631 | 3973 ft | 220 kts | 242° |
| 2026-05-06 08:25 | 53.11640 | 8.51438 | 3714 ft | 209 kts | 242° |
| 2026-05-06 08:25 | 53.10973 | 8.49270 | 3288 ft | 212 kts | 242° |
| 2026-05-06 08:25 | 53.10126 | 8.47312 | 3023 ft | 205 kts | 212° |
| 2026-05-06 08:26 | 53.08847 | 8.46416 | 3012 ft | 201 kts | 188° |
| 2026-05-06 08:26 | 53.07510 | 8.46223 | 3002 ft | 190 kts | 161° |
| 2026-05-06 08:26 | 53.06291 | 8.46915 | 3010 ft | 182 kts | 143° |
| 2026-05-06 08:26 | 53.05292 | 8.48130 | 3023 ft | 175 kts | 127° |
| 2026-05-06 08:27 | 53.04575 | 8.49713 | 3029 ft | 169 kts | 112° |
| 2026-05-06 08:27 | 53.04166 | 8.51511 | 3016 ft | 165 kts | 98° |
| 2026-05-06 08:27 | 53.04076 | 8.53391 | 2886 ft | 162 kts | 84° |
| 2026-05-06 08:27 | 53.04124 | 8.55258 | 2701 ft | 161 kts | 85° |
| 2026-05-06 08:28 | 53.04171 | 8.57115 | 2493 ft | 160 kts | 85° |
| 2026-05-06 08:28 | 53.04215 | 8.58911 | 2282 ft | 151 kts | 85° |
| 2026-05-06 08:28 | 53.04255 | 8.60580 | 2074 ft | 138 kts | 85° |